West Case, Maryland
Current Conditions -  °F | °C
As of 6:54 PM on Saturday 20 Dec 2014 (Local Time) from KBWI Reporting Station
Overcast Overcast  
Wind Chill: 34°   Ceiling: 11000
Heat Index: 34°   Visibility: 10mi
Dew Point: 23°   Wind: 0mph
Humidity: 64%   Direction: NA
Pressure: 30.3"   Gusts: NA
Location:  39.294°N, 76.6226°W
Report Text: KBWI 202354Z 00000KT 10SM FEW032 OVC110 01/M05 A3030 RMK AO2 SLP261 T00111050 10033 20006 53013
Loading
Personal Weather Stations






























Interactive Weather Map New forecast layout! Learn more

10-Day Weather Forecast

Advertisements
Track Severe Weather on mobile